sensor_id;sensor_type;location;lat;lon;timestamp;P1;durP1;ratioP1;P2;durP2;ratioP2
2860;SDS011;1438;50.922;6.704;2023-05-27T00:00:07;5.65;;;3.88;;
2860;SDS011;1438;50.922;6.704;2023-05-27T00:02:33;18.70;;;4.90;;
2860;SDS011;1438;50.922;6.704;2023-05-27T00:05:00;12.23;;;4.70;;
2860;SDS011;1438;50.922;6.704;2023-05-27T00:07:26;17.75;;;5.05;;
2860;SDS011;1438;50.922;6.704;2023-05-27T00:09:53;10.00;;;4.30;;
2860;SDS011;1438;50.922;6.704;2023-05-27T00:12:19;12.77;;;5.20;;
2860;SDS011;1438;50.922;6.704;2023-05-27T00:14:45;13.32;;;3.92;;
2860;SDS011;1438;50.922;6.704;2023-05-27T00:17:11;18.73;;;5.88;;
2860;SDS011;1438;50.922;6.704;2023-05-27T00:19:41;10.32;;;4.53;;
2860;SDS011;1438;50.922;6.704;2023-05-27T00:22:07;12.98;;;4.72;;
2860;SDS011;1438;50.922;6.704;2023-05-27T00:24:34;22.30;;;5.25;;
2860;SDS011;1438;50.922;6.704;2023-05-27T00:27:02;19.17;;;4.78;;
2860;SDS011;1438;50.922;6.704;2023-05-27T00:29:28;12.43;;;4.35;;
2860;SDS011;1438;50.922;6.704;2023-05-27T00:31:54;18.75;;;4.95;;
2860;SDS011;1438;50.922;6.704;2023-05-27T00:34:20;16.23;;;5.43;;
2860;SDS011;1438;50.922;6.704;2023-05-27T00:36:46;13.05;;;5.30;;
2860;SDS011;1438;50.922;6.704;2023-05-27T00:39:13;14.02;;;5.72;;
2860;SDS011;1438;50.922;6.704;2023-05-27T00:41:40;13.43;;;4.85;;
2860;SDS011;1438;50.922;6.704;2023-05-27T00:44:08;18.45;;;4.57;;
2860;SDS011;1438;50.922;6.704;2023-05-27T00:46:35;14.77;;;5.10;;
2860;SDS011;1438;50.922;6.704;2023-05-27T00:49:01;17.13;;;4.70;;
2860;SDS011;1438;50.922;6.704;2023-05-27T00:51:28;16.58;;;5.60;;
2860;SDS011;1438;50.922;6.704;2023-05-27T00:53:54;9.45;;;4.10;;
2860;SDS011;1438;50.922;6.704;2023-05-27T00:56:20;18.30;;;5.47;;
2860;SDS011;1438;50.922;6.704;2023-05-27T00:58:46;10.52;;;4.72;;
2860;SDS011;1438;50.922;6.704;2023-05-27T01:01:12;15.18;;;5.90;;
2860;SDS011;1438;50.922;6.704;2023-05-27T01:03:38;13.75;;;4.57;;
2860;SDS011;1438;50.922;6.704;2023-05-27T01:08:45;14.25;;;5.00;;
2860;SDS011;1438;50.922;6.704;2023-05-27T01:11:13;16.40;;;4.80;;
2860;SDS011;1438;50.922;6.704;2023-05-27T01:13:42;17.95;;;5.45;;
2860;SDS011;1438;50.922;6.704;2023-05-27T01:16:11;14.00;;;5.05;;
2860;SDS011;1438;50.922;6.704;2023-05-27T01:18:39;13.23;;;5.07;;
2860;SDS011;1438;50.922;6.704;2023-05-27T01:21:10;18.80;;;5.55;;
2860;SDS011;1438;50.922;6.704;2023-05-27T01:23:37;9.90;;;4.85;;
2860;SDS011;1438;50.922;6.704;2023-05-27T01:26:05;15.50;;;4.88;;
2860;SDS011;1438;50.922;6.704;2023-05-27T01:28:31;18.27;;;5.90;;
2860;SDS011;1438;50.922;6.704;2023-05-27T01:30:58;9.82;;;4.28;;
2860;SDS011;1438;50.922;6.704;2023-05-27T01:33:26;13.80;;;4.80;;
2860;SDS011;1438;50.922;6.704;2023-05-27T01:35:58;9.95;;;4.10;;
2860;SDS011;1438;50.922;6.704;2023-05-27T01:38:26;9.75;;;4.40;;
2860;SDS011;1438;50.922;6.704;2023-05-27T01:40:54;17.40;;;5.00;;
2860;SDS011;1438;50.922;6.704;2023-05-27T01:43:21;15.18;;;4.65;;
2860;SDS011;1438;50.922;6.704;2023-05-27T01:45:47;14.00;;;5.30;;
2860;SDS011;1438;50.922;6.704;2023-05-27T01:48:13;13.00;;;5.35;;
2860;SDS011;1438;50.922;6.704;2023-05-27T01:50:39;13.38;;;5.82;;
2860;SDS011;1438;50.922;6.704;2023-05-27T01:53:05;13.82;;;5.05;;
2860;SDS011;1438;50.922;6.704;2023-05-27T01:55:31;9.00;;;4.90;;
2860;SDS011;1438;50.922;6.704;2023-05-27T01:57:57;11.07;;;4.65;;
2860;SDS011;1438;50.922;6.704;2023-05-27T02:00:23;15.45;;;5.75;;
2860;SDS011;1438;50.922;6.704;2023-05-27T02:02:50;17.48;;;5.30;;
2860;SDS011;1438;50.922;6.704;2023-05-27T02:05:16;15.70;;;5.25;;
2860;SDS011;1438;50.922;6.704;2023-05-27T02:07:42;12.50;;;5.30;;
2860;SDS011;1438;50.922;6.704;2023-05-27T02:10:08;10.25;;;5.20;;
2860;SDS011;1438;50.922;6.704;2023-05-27T02:12:34;10.10;;;5.03;;
2860;SDS011;1438;50.922;6.704;2023-05-27T02:15:00;15.77;;;4.87;;
2860;SDS011;1438;50.922;6.704;2023-05-27T02:17:26;15.52;;;4.85;;
2860;SDS011;1438;50.922;6.704;2023-05-27T02:19:52;15.20;;;5.15;;
2860;SDS011;1438;50.922;6.704;2023-05-27T02:22:20;19.17;;;5.53;;
2860;SDS011;1438;50.922;6.704;2023-05-27T02:24:46;19.80;;;5.70;;
2860;SDS011;1438;50.922;6.704;2023-05-27T02:27:12;20.80;;;5.53;;
2860;SDS011;1438;50.922;6.704;2023-05-27T02:29:38;14.80;;;5.45;;
2860;SDS011;1438;50.922;6.704;2023-05-27T02:32:04;11.57;;;4.80;;
2860;SDS011;1438;50.922;6.704;2023-05-27T02:34:30;27.75;;;5.75;;
2860;SDS011;1438;50.922;6.704;2023-05-27T02:37:01;15.60;;;5.68;;
2860;SDS011;1438;50.922;6.704;2023-05-27T02:39:27;15.07;;;5.45;;
2860;SDS011;1438;50.922;6.704;2023-05-27T02:41:53;18.65;;;6.22;;
2860;SDS011;1438;50.922;6.704;2023-05-27T02:44:19;12.65;;;5.88;;
2860;SDS011;1438;50.922;6.704;2023-05-27T02:46:45;18.42;;;5.43;;
2860;SDS011;1438;50.922;6.704;2023-05-27T02:49:11;14.18;;;5.47;;
2860;SDS011;1438;50.922;6.704;2023-05-27T02:51:37;14.00;;;7.03;;
2860;SDS011;1438;50.922;6.704;2023-05-27T02:54:03;18.77;;;5.57;;
2860;SDS011;1438;50.922;6.704;2023-05-27T02:56:29;16.77;;;4.80;;
2860;SDS011;1438;50.922;6.704;2023-05-27T02:58:55;22.90;;;6.53;;
2860;SDS011;1438;50.922;6.704;2023-05-27T03:01:21;14.00;;;5.05;;
2860;SDS011;1438;50.922;6.704;2023-05-27T03:03:47;16.25;;;5.65;;
2860;SDS011;1438;50.922;6.704;2023-05-27T03:06:13;14.15;;;4.88;;
2860;SDS011;1438;50.922;6.704;2023-05-27T03:08:40;19.13;;;6.28;;
2860;SDS011;1438;50.922;6.704;2023-05-27T03:11:06;19.73;;;5.20;;
2860;SDS011;1438;50.922;6.704;2023-05-27T03:13:32;21.55;;;5.95;;
2860;SDS011;1438;50.922;6.704;2023-05-27T03:15:58;14.23;;;6.27;;
2860;SDS011;1438;50.922;6.704;2023-05-27T03:18:24;23.27;;;6.15;;
2860;SDS011;1438;50.922;6.704;2023-05-27T03:20:50;12.32;;;5.93;;
2860;SDS011;1438;50.922;6.704;2023-05-27T03:23:16;19.90;;;5.85;;
2860;SDS011;1438;50.922;6.704;2023-05-27T03:25:42;13.33;;;6.10;;
2860;SDS011;1438;50.922;6.704;2023-05-27T03:28:08;14.33;;;5.60;;
2860;SDS011;1438;50.922;6.704;2023-05-27T03:30:35;15.63;;;4.88;;
2860;SDS011;1438;50.922;6.704;2023-05-27T03:33:01;19.15;;;5.03;;
2860;SDS011;1438;50.922;6.704;2023-05-27T03:35:27;14.10;;;6.72;;
2860;SDS011;1438;50.922;6.704;2023-05-27T03:37:53;13.65;;;5.90;;
2860;SDS011;1438;50.922;6.704;2023-05-27T03:40:19;16.17;;;6.20;;
2860;SDS011;1438;50.922;6.704;2023-05-27T03:42:45;18.50;;;5.17;;
2860;SDS011;1438;50.922;6.704;2023-05-27T03:45:11;21.80;;;5.33;;
2860;SDS011;1438;50.922;6.704;2023-05-27T03:47:37;17.40;;;5.30;;
2860;SDS011;1438;50.922;6.704;2023-05-27T03:50:03;17.50;;;6.70;;
2860;SDS011;1438;50.922;6.704;2023-05-27T03:52:30;26.83;;;6.32;;
2860;SDS011;1438;50.922;6.704;2023-05-27T03:54:56;15.73;;;4.68;;
2860;SDS011;1438;50.922;6.704;2023-05-27T03:57:22;16.05;;;5.53;;
2860;SDS011;1438;50.922;6.704;2023-05-27T03:59:48;11.30;;;4.50;;
2860;SDS011;1438;50.922;6.704;2023-05-27T04:02:14;13.90;;;5.20;;
2860;SDS011;1438;50.922;6.704;2023-05-27T04:04:40;14.23;;;6.13;;
2860;SDS011;1438;50.922;6.704;2023-05-27T04:07:06;21.02;;;5.85;;
2860;SDS011;1438;50.922;6.704;2023-05-27T04:09:32;21.60;;;7.13;;
2860;SDS011;1438;50.922;6.704;2023-05-27T04:11:58;19.98;;;5.53;;
2860;SDS011;1438;50.922;6.704;2023-05-27T04:14:25;17.98;;;5.63;;
2860;SDS011;1438;50.922;6.704;2023-05-27T04:16:51;21.48;;;5.80;;
2860;SDS011;1438;50.922;6.704;2023-05-27T04:19:17;13.63;;;5.40;;
2860;SDS011;1438;50.922;6.704;2023-05-27T04:21:43;16.60;;;6.32;;
2860;SDS011;1438;50.922;6.704;2023-05-27T04:24:09;15.95;;;6.90;;
2860;SDS011;1438;50.922;6.704;2023-05-27T04:26:35;15.48;;;6.15;;
2860;SDS011;1438;50.922;6.704;2023-05-27T04:29:02;19.92;;;6.13;;
2860;SDS011;1438;50.922;6.704;2023-05-27T04:31:29;19.75;;;5.95;;
2860;SDS011;1438;50.922;6.704;2023-05-27T04:33:55;23.80;;;7.20;;
2860;SDS011;1438;50.922;6.704;2023-05-27T04:36:21;17.20;;;5.43;;
2860;SDS011;1438;50.922;6.704;2023-05-27T04:38:50;14.07;;;6.30;;
2860;SDS011;1438;50.922;6.704;2023-05-27T04:41:16;15.98;;;5.40;;
2860;SDS011;1438;50.922;6.704;2023-05-27T04:43:45;11.80;;;4.70;;
2860;SDS011;1438;50.922;6.704;2023-05-27T04:46:11;14.27;;;5.25;;
2860;SDS011;1438;50.922;6.704;2023-05-27T04:48:37;14.88;;;5.57;;
2860;SDS011;1438;50.922;6.704;2023-05-27T04:51:04;20.08;;;5.78;;
2860;SDS011;1438;50.922;6.704;2023-05-27T04:53:30;20.50;;;5.60;;
2860;SDS011;1438;50.922;6.704;2023-05-27T04:55:57;15.88;;;5.15;;
2860;SDS011;1438;50.922;6.704;2023-05-27T04:58:23;17.08;;;5.60;;
2860;SDS011;1438;50.922;6.704;2023-05-27T05:00:49;15.50;;;5.60;;
2860;SDS011;1438;50.922;6.704;2023-05-27T05:03:18;13.60;;;6.10;;
2860;SDS011;1438;50.922;6.704;2023-05-27T05:05:52;14.73;;;6.40;;
2860;SDS011;1438;50.922;6.704;2023-05-27T05:08:19;11.50;;;5.40;;
2860;SDS011;1438;50.922;6.704;2023-05-27T05:10:48;13.88;;;5.20;;
2860;SDS011;1438;50.922;6.704;2023-05-27T05:13:14;25.50;;;6.38;;
2860;SDS011;1438;50.922;6.704;2023-05-27T05:15:41;21.27;;;7.43;;
2860;SDS011;1438;50.922;6.704;2023-05-27T05:18:08;19.30;;;5.82;;
2860;SDS011;1438;50.922;6.704;2023-05-27T05:20:35;23.58;;;6.13;;
2860;SDS011;1438;50.922;6.704;2023-05-27T05:23:01;14.73;;;5.85;;
2860;SDS011;1438;50.922;6.704;2023-05-27T05:25:27;13.57;;;5.40;;
2860;SDS011;1438;50.922;6.704;2023-05-27T05:27:55;16.48;;;6.32;;
2860;SDS011;1438;50.922;6.704;2023-05-27T05:30:21;18.10;;;7.22;;
2860;SDS011;1438;50.922;6.704;2023-05-27T05:32:47;17.02;;;5.70;;
2860;SDS011;1438;50.922;6.704;2023-05-27T05:35:13;16.95;;;6.65;;
2860;SDS011;1438;50.922;6.704;2023-05-27T05:37:39;21.35;;;6.22;;
2860;SDS011;1438;50.922;6.704;2023-05-27T05:40:05;17.48;;;6.80;;
2860;SDS011;1438;50.922;6.704;2023-05-27T05:42:32;16.77;;;6.72;;
2860;SDS011;1438;50.922;6.704;2023-05-27T05:44:58;22.60;;;7.20;;
2860;SDS011;1438;50.922;6.704;2023-05-27T05:47:24;19.70;;;5.72;;
2860;SDS011;1438;50.922;6.704;2023-05-27T05:49:50;24.52;;;6.60;;
2860;SDS011;1438;50.922;6.704;2023-05-27T05:52:16;14.57;;;5.57;;
2860;SDS011;1438;50.922;6.704;2023-05-27T05:54:42;15.55;;;6.43;;
2860;SDS011;1438;50.922;6.704;2023-05-27T05:57:08;14.75;;;6.00;;
2860;SDS011;1438;50.922;6.704;2023-05-27T05:59:34;20.27;;;5.53;;
2860;SDS011;1438;50.922;6.704;2023-05-27T06:02:00;21.07;;;6.73;;
2860;SDS011;1438;50.922;6.704;2023-05-27T06:04:26;15.32;;;6.07;;
2860;SDS011;1438;50.922;6.704;2023-05-27T06:06:52;16.08;;;6.38;;
2860;SDS011;1438;50.922;6.704;2023-05-27T06:09:18;17.15;;;6.20;;
2860;SDS011;1438;50.922;6.704;2023-05-27T06:11:44;16.92;;;6.35;;
2860;SDS011;1438;50.922;6.704;2023-05-27T06:14:10;17.80;;;5.82;;
2860;SDS011;1438;50.922;6.704;2023-05-27T06:16:36;21.83;;;7.67;;
2860;SDS011;1438;50.922;6.704;2023-05-27T06:19:04;18.83;;;6.90;;
2860;SDS011;1438;50.922;6.704;2023-05-27T06:21:30;11.20;;;5.80;;
2860;SDS011;1438;50.922;6.704;2023-05-27T06:23:57;17.83;;;6.95;;
2860;SDS011;1438;50.922;6.704;2023-05-27T06:26:25;17.08;;;6.30;;
2860;SDS011;1438;50.922;6.704;2023-05-27T06:28:52;18.27;;;5.93;;
2860;SDS011;1438;50.922;6.704;2023-05-27T06:31:18;13.33;;;5.07;;
2860;SDS011;1438;50.922;6.704;2023-05-27T06:33:44;12.77;;;5.45;;
2860;SDS011;1438;50.922;6.704;2023-05-27T06:36:10;15.70;;;6.00;;
2860;SDS011;1438;50.922;6.704;2023-05-27T06:38:36;24.57;;;6.33;;
2860;SDS011;1438;50.922;6.704;2023-05-27T06:41:03;12.83;;;4.67;;
2860;SDS011;1438;50.922;6.704;2023-05-27T06:43:29;16.83;;;5.93;;
2860;SDS011;1438;50.922;6.704;2023-05-27T06:45:55;20.93;;;5.80;;
2860;SDS011;1438;50.922;6.704;2023-05-27T06:48:21;18.80;;;5.83;;
2860;SDS011;1438;50.922;6.704;2023-05-27T06:50:47;17.20;;;5.60;;
2860;SDS011;1438;50.922;6.704;2023-05-27T06:53:13;15.50;;;6.13;;
2860;SDS011;1438;50.922;6.704;2023-05-27T06:55:39;10.90;;;5.80;;
2860;SDS011;1438;50.922;6.704;2023-05-27T06:58:05;17.10;;;6.33;;
2860;SDS011;1438;50.922;6.704;2023-05-27T07:00:31;9.60;;;5.23;;
2860;SDS011;1438;50.922;6.704;2023-05-27T07:02:57;18.80;;;5.90;;
2860;SDS011;1438;50.922;6.704;2023-05-27T07:05:25;15.27;;;5.97;;
2860;SDS011;1438;50.922;6.704;2023-05-27T07:07:51;13.43;;;6.10;;
2860;SDS011;1438;50.922;6.704;2023-05-27T07:10:17;12.60;;;4.73;;
2860;SDS011;1438;50.922;6.704;2023-05-27T07:12:43;16.00;;;5.07;;
2860;SDS011;1438;50.922;6.704;2023-05-27T07:15:09;10.90;;;4.70;;
2860;SDS011;1438;50.922;6.704;2023-05-27T07:17:35;16.40;;;5.73;;
2860;SDS011;1438;50.922;6.704;2023-05-27T07:20:01;15.37;;;5.73;;
2860;SDS011;1438;50.922;6.704;2023-05-27T07:22:28;14.43;;;6.13;;
2860;SDS011;1438;50.922;6.704;2023-05-27T07:24:54;11.67;;;5.40;;
2860;SDS011;1438;50.922;6.704;2023-05-27T07:27:20;18.30;;;5.00;;
2860;SDS011;1438;50.922;6.704;2023-05-27T07:29:46;15.07;;;5.90;;
2860;SDS011;1438;50.922;6.704;2023-05-27T07:32:12;11.50;;;4.90;;
2860;SDS011;1438;50.922;6.704;2023-05-27T07:34:38;19.70;;;5.67;;
2860;SDS011;1438;50.922;6.704;2023-05-27T07:37:04;16.63;;;5.27;;
2860;SDS011;1438;50.922;6.704;2023-05-27T07:39:30;16.77;;;4.10;;
2860;SDS011;1438;50.922;6.704;2023-05-27T07:41:56;10.90;;;5.17;;
2860;SDS011;1438;50.922;6.704;2023-05-27T07:44:22;14.77;;;4.80;;
2860;SDS011;1438;50.922;6.704;2023-05-27T07:46:48;14.50;;;5.00;;
2860;SDS011;1438;50.922;6.704;2023-05-27T07:49:14;8.63;;;4.23;;
2860;SDS011;1438;50.922;6.704;2023-05-27T07:51:40;15.57;;;4.27;;
2860;SDS011;1438;50.922;6.704;2023-05-27T07:54:06;9.70;;;5.00;;
2860;SDS011;1438;50.922;6.704;2023-05-27T07:56:32;12.57;;;3.60;;
2860;SDS011;1438;50.922;6.704;2023-05-27T07:58:59;11.20;;;4.50;;
2860;SDS011;1438;50.922;6.704;2023-05-27T08:01:25;12.50;;;5.47;;
2860;SDS011;1438;50.922;6.704;2023-05-27T08:03:55;11.90;;;5.30;;
2860;SDS011;1438;50.922;6.704;2023-05-27T08:06:21;13.40;;;5.03;;
2860;SDS011;1438;50.922;6.704;2023-05-27T08:08:47;9.60;;;4.70;;
2860;SDS011;1438;50.922;6.704;2023-05-27T08:11:13;13.57;;;4.67;;
2860;SDS011;1438;50.922;6.704;2023-05-27T08:13:39;9.40;;;3.60;;
2860;SDS011;1438;50.922;6.704;2023-05-27T08:16:05;15.40;;;4.63;;
2860;SDS011;1438;50.922;6.704;2023-05-27T08:18:32;11.07;;;4.10;;
2860;SDS011;1438;50.922;6.704;2023-05-27T08:20:58;10.33;;;4.60;;
2860;SDS011;1438;50.922;6.704;2023-05-27T08:23:24;10.93;;;4.57;;
2860;SDS011;1438;50.922;6.704;2023-05-27T08:25:51;26.60;;;5.10;;
2860;SDS011;1438;50.922;6.704;2023-05-27T08:28:17;11.17;;;3.87;;
2860;SDS011;1438;50.922;6.704;2023-05-27T08:30:43;14.93;;;4.80;;
2860;SDS011;1438;50.922;6.704;2023-05-27T08:33:09;13.60;;;5.00;;
2860;SDS011;1438;50.922;6.704;2023-05-27T08:35:35;13.47;;;4.27;;
2860;SDS011;1438;50.922;6.704;2023-05-27T08:38:01;7.63;;;4.00;;
2860;SDS011;1438;50.922;6.704;2023-05-27T08:40:27;11.70;;;4.20;;
2860;SDS011;1438;50.922;6.704;2023-05-27T08:42:53;9.30;;;4.20;;
2860;SDS011;1438;50.922;6.704;2023-05-27T08:45:19;9.20;;;4.87;;
2860;SDS011;1438;50.922;6.704;2023-05-27T08:47:47;12.53;;;4.40;;
2860;SDS011;1438;50.922;6.704;2023-05-27T08:50:14;10.80;;;4.30;;
2860;SDS011;1438;50.922;6.704;2023-05-27T08:52:44;8.97;;;4.10;;
2860;SDS011;1438;50.922;6.704;2023-05-27T08:55:11;11.90;;;4.70;;
2860;SDS011;1438;50.922;6.704;2023-05-27T08:57:39;9.30;;;4.50;;
2860;SDS011;1438;50.922;6.704;2023-05-27T09:00:10;9.90;;;3.63;;
2860;SDS011;1438;50.922;6.704;2023-05-27T09:02:38;11.30;;;4.60;;
2860;SDS011;1438;50.922;6.704;2023-05-27T09:05:05;8.80;;;3.57;;
2860;SDS011;1438;50.922;6.704;2023-05-27T09:07:31;12.03;;;4.40;;
2860;SDS011;1438;50.922;6.704;2023-05-27T09:09:57;11.80;;;4.07;;
2860;SDS011;1438;50.922;6.704;2023-05-27T09:12:24;9.80;;;3.93;;
2860;SDS011;1438;50.922;6.704;2023-05-27T09:14:51;10.90;;;4.17;;
2860;SDS011;1438;50.922;6.704;2023-05-27T09:17:17;13.40;;;3.97;;
2860;SDS011;1438;50.922;6.704;2023-05-27T09:19:46;11.30;;;4.23;;
2860;SDS011;1438;50.922;6.704;2023-05-27T09:22:22;7.33;;;3.63;;
2860;SDS011;1438;50.922;6.704;2023-05-27T09:24:49;8.90;;;4.40;;
2860;SDS011;1438;50.922;6.704;2023-05-27T09:27:15;9.80;;;3.57;;
2860;SDS011;1438;50.922;6.704;2023-05-27T09:29:41;9.70;;;3.80;;
2860;SDS011;1438;50.922;6.704;2023-05-27T09:32:07;14.20;;;4.70;;
2860;SDS011;1438;50.922;6.704;2023-05-27T09:34:39;7.90;;;3.60;;
2860;SDS011;1438;50.922;6.704;2023-05-27T09:37:11;8.57;;;3.50;;
2860;SDS011;1438;50.922;6.704;2023-05-27T09:39:41;7.33;;;3.37;;
2860;SDS011;1438;50.922;6.704;2023-05-27T09:42:07;11.00;;;4.13;;
2860;SDS011;1438;50.922;6.704;2023-05-27T09:44:36;9.67;;;4.30;;
2860;SDS011;1438;50.922;6.704;2023-05-27T09:47:03;9.37;;;3.43;;
2860;SDS011;1438;50.922;6.704;2023-05-27T09:49:32;11.30;;;3.70;;
2860;SDS011;1438;50.922;6.704;2023-05-27T09:52:01;13.50;;;4.33;;
2860;SDS011;1438;50.922;6.704;2023-05-27T09:54:27;10.57;;;4.30;;
2860;SDS011;1438;50.922;6.704;2023-05-27T09:56:54;12.70;;;4.50;;
2860;SDS011;1438;50.922;6.704;2023-05-27T09:59:20;7.50;;;3.90;;
2860;SDS011;1438;50.922;6.704;2023-05-27T10:01:46;13.97;;;4.50;;
2860;SDS011;1438;50.922;6.704;2023-05-27T10:04:16;8.07;;;4.33;;
2860;SDS011;1438;50.922;6.704;2023-05-27T10:06:44;14.20;;;4.53;;
2860;SDS011;1438;50.922;6.704;2023-05-27T10:09:10;7.60;;;3.87;;
2860;SDS011;1438;50.922;6.704;2023-05-27T10:11:38;11.47;;;4.80;;
2860;SDS011;1438;50.922;6.704;2023-05-27T10:14:05;9.77;;;4.57;;
2860;SDS011;1438;50.922;6.704;2023-05-27T10:16:32;10.43;;;4.27;;
2860;SDS011;1438;50.922;6.704;2023-05-27T10:18:58;10.07;;;3.90;;
2860;SDS011;1438;50.922;6.704;2023-05-27T10:21:28;9.03;;;3.77;;
2860;SDS011;1438;50.922;6.704;2023-05-27T10:24:00;12.30;;;5.20;;
2860;SDS011;1438;50.922;6.704;2023-05-27T10:26:32;8.97;;;4.80;;
2860;SDS011;1438;50.922;6.704;2023-05-27T10:29:14;10.30;;;4.87;;
2860;SDS011;1438;50.922;6.704;2023-05-27T10:31:49;9.20;;;3.40;;
2860;SDS011;1438;50.922;6.704;2023-05-27T10:34:15;11.43;;;4.47;;
2860;SDS011;1438;50.922;6.704;2023-05-27T10:36:41;12.83;;;5.13;;
2860;SDS011;1438;50.922;6.704;2023-05-27T10:42:10;9.80;;;3.43;;
2860;SDS011;1438;50.922;6.704;2023-05-27T10:44:34;10.90;;;3.93;;
2860;SDS011;1438;50.922;6.704;2023-05-27T10:47:01;8.90;;;4.50;;
2860;SDS011;1438;50.922;6.704;2023-05-27T10:49:27;11.10;;;4.47;;
2860;SDS011;1438;50.922;6.704;2023-05-27T10:52:00;9.33;;;4.20;;
2860;SDS011;1438;50.922;6.704;2023-05-27T10:54:33;10.43;;;4.00;;
2860;SDS011;1438;50.922;6.704;2023-05-27T10:57:00;7.20;;;3.33;;
2860;SDS011;1438;50.922;6.704;2023-05-27T10:59:28;8.03;;;3.47;;
2860;SDS011;1438;50.922;6.704;2023-05-27T11:01:58;7.40;;;3.53;;
2860;SDS011;1438;50.922;6.704;2023-05-27T11:04:24;6.70;;;3.67;;
2860;SDS011;1438;50.922;6.704;2023-05-27T11:06:58;8.97;;;4.37;;
2860;SDS011;1438;50.922;6.704;2023-05-27T11:09:27;7.87;;;3.80;;
2860;SDS011;1438;50.922;6.704;2023-05-27T11:11:54;8.03;;;3.80;;
2860;SDS011;1438;50.922;6.704;2023-05-27T11:14:21;14.17;;;5.10;;
2860;SDS011;1438;50.922;6.704;2023-05-27T11:16:47;8.87;;;3.47;;
2860;SDS011;1438;50.922;6.704;2023-05-27T11:19:16;11.67;;;4.23;;
2860;SDS011;1438;50.922;6.704;2023-05-27T11:21:46;8.07;;;3.60;;
2860;SDS011;1438;50.922;6.704;2023-05-27T11:24:16;6.83;;;3.77;;
2860;SDS011;1438;50.922;6.704;2023-05-27T11:26:43;8.73;;;4.10;;
2860;SDS011;1438;50.922;6.704;2023-05-27T11:29:13;9.63;;;4.57;;
2860;SDS011;1438;50.922;6.704;2023-05-27T11:31:40;8.03;;;3.93;;
2860;SDS011;1438;50.922;6.704;2023-05-27T11:34:12;8.90;;;3.90;;
2860;SDS011;1438;50.922;6.704;2023-05-27T11:36:38;11.40;;;4.20;;
2860;SDS011;1438;50.922;6.704;2023-05-27T11:39:05;9.50;;;4.00;;
2860;SDS011;1438;50.922;6.704;2023-05-27T11:41:32;10.80;;;3.70;;
2860;SDS011;1438;50.922;6.704;2023-05-27T11:44:04;7.50;;;3.90;;
2860;SDS011;1438;50.922;6.704;2023-05-27T11:46:38;7.77;;;3.93;;
2860;SDS011;1438;50.922;6.704;2023-05-27T11:49:05;8.40;;;4.00;;
2860;SDS011;1438;50.922;6.704;2023-05-27T11:51:33;10.73;;;4.87;;
2860;SDS011;1438;50.922;6.704;2023-05-27T11:53:59;10.00;;;4.30;;
2860;SDS011;1438;50.922;6.704;2023-05-27T11:56:29;9.77;;;4.17;;
2860;SDS011;1438;50.922;6.704;2023-05-27T11:58:55;11.13;;;4.60;;
2860;SDS011;1438;50.922;6.704;2023-05-27T12:01:21;11.20;;;4.90;;
2860;SDS011;1438;50.922;6.704;2023-05-27T12:03:47;11.13;;;4.67;;
2860;SDS011;1438;50.922;6.704;2023-05-27T12:06:13;8.97;;;4.17;;
2860;SDS011;1438;50.922;6.704;2023-05-27T12:08:40;7.40;;;3.67;;
2860;SDS011;1438;50.922;6.704;2023-05-27T12:11:07;9.03;;;4.50;;
2860;SDS011;1438;50.922;6.704;2023-05-27T12:13:33;8.70;;;4.60;;
2860;SDS011;1438;50.922;6.704;2023-05-27T12:15:59;10.47;;;4.10;;
2860;SDS011;1438;50.922;6.704;2023-05-27T12:18:25;11.03;;;4.47;;
2860;SDS011;1438;50.922;6.704;2023-05-27T12:20:51;7.70;;;3.20;;
2860;SDS011;1438;50.922;6.704;2023-05-27T12:23:17;6.40;;;3.97;;
2860;SDS011;1438;50.922;6.704;2023-05-27T12:25:43;8.43;;;3.80;;
2860;SDS011;1438;50.922;6.704;2023-05-27T12:28:09;9.77;;;3.80;;
2860;SDS011;1438;50.922;6.704;2023-05-27T12:30:36;7.60;;;3.73;;
2860;SDS011;1438;50.922;6.704;2023-05-27T12:33:02;8.60;;;4.10;;
2860;SDS011;1438;50.922;6.704;2023-05-27T12:35:29;13.43;;;4.23;;
2860;SDS011;1438;50.922;6.704;2023-05-27T12:37:55;11.07;;;3.87;;
2860;SDS011;1438;50.922;6.704;2023-05-27T12:40:21;7.83;;;3.80;;
2860;SDS011;1438;50.922;6.704;2023-05-27T12:42:47;9.27;;;4.40;;
2860;SDS011;1438;50.922;6.704;2023-05-27T12:45:14;8.10;;;4.27;;
2860;SDS011;1438;50.922;6.704;2023-05-27T12:47:40;9.07;;;4.43;;
2860;SDS011;1438;50.922;6.704;2023-05-27T12:50:06;7.60;;;3.80;;
2860;SDS011;1438;50.922;6.704;2023-05-27T12:52:32;10.00;;;4.00;;
2860;SDS011;1438;50.922;6.704;2023-05-27T12:55:00;8.07;;;4.00;;
2860;SDS011;1438;50.922;6.704;2023-05-27T12:57:26;8.30;;;4.17;;
2860;SDS011;1438;50.922;6.704;2023-05-27T12:59:52;10.80;;;3.47;;
2860;SDS011;1438;50.922;6.704;2023-05-27T13:02:18;5.90;;;3.33;;
2860;SDS011;1438;50.922;6.704;2023-05-27T13:04:44;10.37;;;4.07;;
2860;SDS011;1438;50.922;6.704;2023-05-27T13:07:11;10.27;;;4.50;;
2860;SDS011;1438;50.922;6.704;2023-05-27T13:09:39;8.23;;;3.70;;
2860;SDS011;1438;50.922;6.704;2023-05-27T13:12:05;9.80;;;3.93;;
2860;SDS011;1438;50.922;6.704;2023-05-27T13:14:31;11.40;;;3.90;;
2860;SDS011;1438;50.922;6.704;2023-05-27T13:16:57;6.97;;;4.10;;
2860;SDS011;1438;50.922;6.704;2023-05-27T13:19:23;6.97;;;4.03;;
2860;SDS011;1438;50.922;6.704;2023-05-27T13:21:49;6.47;;;3.30;;
2860;SDS011;1438;50.922;6.704;2023-05-27T13:24:16;6.17;;;3.67;;
2860;SDS011;1438;50.922;6.704;2023-05-27T13:26:42;9.10;;;4.40;;
2860;SDS011;1438;50.922;6.704;2023-05-27T13:29:09;8.53;;;3.50;;
2860;SDS011;1438;50.922;6.704;2023-05-27T13:31:35;8.97;;;3.50;;
2860;SDS011;1438;50.922;6.704;2023-05-27T13:34:01;10.00;;;4.30;;
2860;SDS011;1438;50.922;6.704;2023-05-27T13:36:27;8.17;;;3.87;;
2860;SDS011;1438;50.922;6.704;2023-05-27T13:38:53;8.57;;;3.50;;
2860;SDS011;1438;50.922;6.704;2023-05-27T13:41:19;10.20;;;4.00;;
2860;SDS011;1438;50.922;6.704;2023-05-27T13:43:45;10.20;;;4.60;;
2860;SDS011;1438;50.922;6.704;2023-05-27T13:46:11;9.30;;;3.90;;
2860;SDS011;1438;50.922;6.704;2023-05-27T13:48:37;9.90;;;3.77;;
2860;SDS011;1438;50.922;6.704;2023-05-27T13:51:03;8.80;;;4.30;;
2860;SDS011;1438;50.922;6.704;2023-05-27T13:53:30;6.93;;;3.70;;
2860;SDS011;1438;50.922;6.704;2023-05-27T13:55:56;7.03;;;3.67;;
2860;SDS011;1438;50.922;6.704;2023-05-27T13:58:22;9.80;;;4.10;;
2860;SDS011;1438;50.922;6.704;2023-05-27T14:00:48;9.07;;;4.00;;
2860;SDS011;1438;50.922;6.704;2023-05-27T14:03:14;7.77;;;3.93;;
2860;SDS011;1438;50.922;6.704;2023-05-27T14:05:40;5.43;;;3.50;;
2860;SDS011;1438;50.922;6.704;2023-05-27T14:08:06;5.03;;;3.40;;
2860;SDS011;1438;50.922;6.704;2023-05-27T14:10:33;8.50;;;3.17;;
2860;SDS011;1438;50.922;6.704;2023-05-27T14:12:59;8.40;;;4.20;;
2860;SDS011;1438;50.922;6.704;2023-05-27T14:15:26;7.60;;;3.37;;
2860;SDS011;1438;50.922;6.704;2023-05-27T14:17:53;5.53;;;2.80;;
2860;SDS011;1438;50.922;6.704;2023-05-27T14:20:19;7.93;;;3.57;;
2860;SDS011;1438;50.922;6.704;2023-05-27T14:22:46;7.93;;;3.67;;
2860;SDS011;1438;50.922;6.704;2023-05-27T14:25:12;7.77;;;3.80;;
2860;SDS011;1438;50.922;6.704;2023-05-27T14:27:40;7.50;;;3.67;;
2860;SDS011;1438;50.922;6.704;2023-05-27T14:30:06;6.20;;;3.50;;
2860;SDS011;1438;50.922;6.704;2023-05-27T14:32:32;7.10;;;3.30;;
2860;SDS011;1438;50.922;6.704;2023-05-27T14:34:58;5.97;;;2.90;;
2860;SDS011;1438;50.922;6.704;2023-05-27T14:37:24;7.23;;;4.00;;
2860;SDS011;1438;50.922;6.704;2023-05-27T14:39:51;6.80;;;3.50;;
2860;SDS011;1438;50.922;6.704;2023-05-27T14:42:17;5.87;;;3.40;;
2860;SDS011;1438;50.922;6.704;2023-05-27T14:44:43;8.77;;;3.50;;
2860;SDS011;1438;50.922;6.704;2023-05-27T14:47:09;8.00;;;3.83;;
2860;SDS011;1438;50.922;6.704;2023-05-27T14:49:36;6.40;;;3.10;;
2860;SDS011;1438;50.922;6.704;2023-05-27T14:52:02;5.70;;;3.40;;
2860;SDS011;1438;50.922;6.704;2023-05-27T14:54:28;4.70;;;3.00;;
2860;SDS011;1438;50.922;6.704;2023-05-27T14:56:54;5.63;;;3.57;;
2860;SDS011;1438;50.922;6.704;2023-05-27T14:59:20;5.73;;;3.53;;
2860;SDS011;1438;50.922;6.704;2023-05-27T15:01:47;7.90;;;3.77;;
2860;SDS011;1438;50.922;6.704;2023-05-27T15:04:13;4.40;;;3.40;;
2860;SDS011;1438;50.922;6.704;2023-05-27T15:06:39;9.10;;;4.20;;